sensor_id;sensor_type;location;lat;lon;timestamp;temperature;humidity
52275;DHT22;38228;50.940;4.024;2022-08-01T00:02:13;20.80;99.90
52275;DHT22;38228;50.940;4.024;2022-08-01T00:04:39;20.70;99.90
52275;DHT22;38228;50.940;4.024;2022-08-01T00:07:05;20.70;99.90
52275;DHT22;38228;50.940;4.024;2022-08-01T00:09:30;20.70;99.90
52275;DHT22;38228;50.940;4.024;2022-08-01T00:11:56;20.70;99.90
52275;DHT22;38228;50.940;4.024;2022-08-01T00:14:22;20.70;99.90
52275;DHT22;38228;50.940;4.024;2022-08-01T00:16:48;20.70;99.90
52275;DHT22;38228;50.940;4.024;2022-08-01T00:19:13;20.60;99.90
52275;DHT22;38228;50.940;4.024;2022-08-01T00:21:39;20.40;99.90
52275;DHT22;38228;50.940;4.024;2022-08-01T00:24:05;20.40;99.90
52275;DHT22;38228;50.940;4.024;2022-08-01T00:26:31;20.50;99.90
52275;DHT22;38228;50.940;4.024;2022-08-01T00:28:56;20.50;99.90
52275;DHT22;38228;50.940;4.024;2022-08-01T00:31:22;20.50;99.90
52275;DHT22;38228;50.940;4.024;2022-08-01T00:33:47;20.50;99.90
52275;DHT22;38228;50.940;4.024;2022-08-01T00:36:13;20.40;99.90
52275;DHT22;38228;50.940;4.024;2022-08-01T00:38:39;20.40;99.90
52275;DHT22;38228;50.940;4.024;2022-08-01T00:41:05;20.30;99.90
52275;DHT22;38228;50.940;4.024;2022-08-01T00:43:30;20.20;99.90
52275;DHT22;38228;50.940;4.024;2022-08-01T00:45:56;20.20;99.90
52275;DHT22;38228;50.940;4.024;2022-08-01T00:48:22;20.20;99.90
52275;DHT22;38228;50.940;4.024;2022-08-01T00:50:47;20.20;99.90
52275;DHT22;38228;50.940;4.024;2022-08-01T00:53:14;20.20;99.90
52275;DHT22;38228;50.940;4.024;2022-08-01T00:55:40;20.30;99.90
52275;DHT22;38228;50.940;4.024;2022-08-01T00:58:06;20.20;99.90
52275;DHT22;38228;50.940;4.024;2022-08-01T01:00:33;20.30;99.90
52275;DHT22;38228;50.940;4.024;2022-08-01T01:02:59;20.20;99.90
52275;DHT22;38228;50.940;4.024;2022-08-01T01:05:25;20.30;99.90
52275;DHT22;38228;50.940;4.024;2022-08-01T01:07:56;20.20;99.90
52275;DHT22;38228;50.940;4.024;2022-08-01T01:13:26;20.30;99.90
52275;DHT22;38228;50.940;4.024;2022-08-01T01:16:04;20.20;99.90
52275;DHT22;38228;50.940;4.024;2022-08-01T01:18:37;20.30;99.90
52275;DHT22;38228;50.940;4.024;2022-08-01T01:26:57;20.30;99.90
52275;DHT22;38228;50.940;4.024;2022-08-01T01:29:38;20.30;99.90
52275;DHT22;38228;50.940;4.024;2022-08-01T01:32:33;20.40;99.90
52275;DHT22;38228;50.940;4.024;2022-08-01T01:35:05;20.40;99.90
52275;DHT22;38228;50.940;4.024;2022-08-01T01:37:33;20.50;99.90
52275;DHT22;38228;50.940;4.024;2022-08-01T01:40:00;20.40;99.90
52275;DHT22;38228;50.940;4.024;2022-08-01T01:42:26;20.40;99.90
52275;DHT22;38228;50.940;4.024;2022-08-01T01:44:54;20.40;99.90
52275;DHT22;38228;50.940;4.024;2022-08-01T01:47:21;20.30;99.90
52275;DHT22;38228;50.940;4.024;2022-08-01T01:49:49;20.30;99.90
52275;DHT22;38228;50.940;4.024;2022-08-01T01:52:17;20.30;99.90
52275;DHT22;38228;50.940;4.024;2022-08-01T01:54:48;20.30;99.90
52275;DHT22;38228;50.940;4.024;2022-08-01T01:57:17;20.30;99.90
52275;DHT22;38228;50.940;4.024;2022-08-01T01:59:44;20.30;99.90
52275;DHT22;38228;50.940;4.024;2022-08-01T02:02:11;20.50;99.90
52275;DHT22;38228;50.940;4.024;2022-08-01T02:04:40;20.40;99.90
52275;DHT22;38228;50.940;4.024;2022-08-01T02:07:12;20.40;99.90
52275;DHT22;38228;50.940;4.024;2022-08-01T02:09:41;20.50;99.90
52275;DHT22;38228;50.940;4.024;2022-08-01T02:12:10;20.40;99.90
52275;DHT22;38228;50.940;4.024;2022-08-01T02:14:38;20.40;99.90
52275;DHT22;38228;50.940;4.024;2022-08-01T02:17:11;20.40;99.90
52275;DHT22;38228;50.940;4.024;2022-08-01T02:19:37;20.30;99.90
52275;DHT22;38228;50.940;4.024;2022-08-01T02:22:26;20.10;99.90
52275;DHT22;38228;50.940;4.024;2022-08-01T02:25:10;20.20;99.90
52275;DHT22;38228;50.940;4.024;2022-08-01T02:27:47;20.00;99.90
52275;DHT22;38228;50.940;4.024;2022-08-01T02:30:16;19.90;99.90
52275;DHT22;38228;50.940;4.024;2022-08-01T02:33:02;19.90;99.90
52275;DHT22;38228;50.940;4.024;2022-08-01T02:35:30;19.90;99.90
52275;DHT22;38228;50.940;4.024;2022-08-01T02:37:58;19.70;99.90
52275;DHT22;38228;50.940;4.024;2022-08-01T02:40:28;19.70;99.90
52275;DHT22;38228;50.940;4.024;2022-08-01T02:42:55;19.60;99.90
52275;DHT22;38228;50.940;4.024;2022-08-01T02:45:25;19.50;99.90
52275;DHT22;38228;50.940;4.024;2022-08-01T02:47:52;19.50;99.90
52275;DHT22;38228;50.940;4.024;2022-08-01T02:50:20;19.30;99.90
52275;DHT22;38228;50.940;4.024;2022-08-01T02:52:49;19.20;99.90
52275;DHT22;38228;50.940;4.024;2022-08-01T02:55:17;19.20;99.90
52275;DHT22;38228;50.940;4.024;2022-08-01T02:57:44;19.30;99.90
52275;DHT22;38228;50.940;4.024;2022-08-01T03:00:12;19.40;99.90
52275;DHT22;38228;50.940;4.024;2022-08-01T03:02:39;19.50;99.90
52275;DHT22;38228;50.940;4.024;2022-08-01T03:05:06;19.60;99.90
52275;DHT22;38228;50.940;4.024;2022-08-01T03:07:34;19.70;99.90
52275;DHT22;38228;50.940;4.024;2022-08-01T03:10:01;19.60;99.90
52275;DHT22;38228;50.940;4.024;2022-08-01T03:12:29;19.70;99.90
52275;DHT22;38228;50.940;4.024;2022-08-01T03:14:56;19.50;99.90
52275;DHT22;38228;50.940;4.024;2022-08-01T03:17:25;19.50;99.90
52275;DHT22;38228;50.940;4.024;2022-08-01T03:19:53;19.50;99.90
52275;DHT22;38228;50.940;4.024;2022-08-01T03:22:21;19.50;99.90
52275;DHT22;38228;50.940;4.024;2022-08-01T03:24:50;19.60;99.90
52275;DHT22;38228;50.940;4.024;2022-08-01T03:27:19;19.60;99.90
52275;DHT22;38228;50.940;4.024;2022-08-01T03:29:46;19.60;99.90
52275;DHT22;38228;50.940;4.024;2022-08-01T03:32:13;19.60;99.90
52275;DHT22;38228;50.940;4.024;2022-08-01T03:34:39;19.40;99.90
52275;DHT22;38228;50.940;4.024;2022-08-01T03:37:11;19.40;99.90
52275;DHT22;38228;50.940;4.024;2022-08-01T03:40:28;19.60;99.90
52275;DHT22;38228;50.940;4.024;2022-08-01T03:42:41;19.60;99.90
52275;DHT22;38228;50.940;4.024;2022-08-01T03:45:15;19.80;99.90
52275;DHT22;38228;50.940;4.024;2022-08-01T03:47:47;19.70;99.90
52275;DHT22;38228;50.940;4.024;2022-08-01T03:50:14;19.50;99.90
52275;DHT22;38228;50.940;4.024;2022-08-01T03:52:43;19.40;99.90
52275;DHT22;38228;50.940;4.024;2022-08-01T03:55:11;19.40;99.90
52275;DHT22;38228;50.940;4.024;2022-08-01T03:57:38;19.40;99.90
52275;DHT22;38228;50.940;4.024;2022-08-01T04:00:06;19.50;99.90
52275;DHT22;38228;50.940;4.024;2022-08-01T04:02:34;19.70;99.90
52275;DHT22;38228;50.940;4.024;2022-08-01T04:05:00;19.80;99.90
52275;DHT22;38228;50.940;4.024;2022-08-01T04:07:28;19.70;99.90
52275;DHT22;38228;50.940;4.024;2022-08-01T04:09:54;19.70;99.90
52275;DHT22;38228;50.940;4.024;2022-08-01T04:12:20;19.70;99.90
52275;DHT22;38228;50.940;4.024;2022-08-01T04:14:47;19.60;99.90
52275;DHT22;38228;50.940;4.024;2022-08-01T04:17:13;19.50;99.90
52275;DHT22;38228;50.940;4.024;2022-08-01T04:19:39;19.60;99.90
52275;DHT22;38228;50.940;4.024;2022-08-01T04:22:05;19.60;99.90
52275;DHT22;38228;50.940;4.024;2022-08-01T04:24:32;19.60;99.90
52275;DHT22;38228;50.940;4.024;2022-08-01T04:27:01;19.60;99.90
52275;DHT22;38228;50.940;4.024;2022-08-01T04:29:30;19.50;99.90
52275;DHT22;38228;50.940;4.024;2022-08-01T04:31:58;19.40;99.90
52275;DHT22;38228;50.940;4.024;2022-08-01T04:34:28;19.30;99.90
52275;DHT22;38228;50.940;4.024;2022-08-01T04:36:55;19.40;99.90
52275;DHT22;38228;50.940;4.024;2022-08-01T04:39:23;19.80;99.90
52275;DHT22;38228;50.940;4.024;2022-08-01T04:41:52;19.90;99.90
52275;DHT22;38228;50.940;4.024;2022-08-01T04:44:22;20.00;99.90
52275;DHT22;38228;50.940;4.024;2022-08-01T04:46:48;19.90;99.90
52275;DHT22;38228;50.940;4.024;2022-08-01T04:49:15;19.80;99.90
52275;DHT22;38228;50.940;4.024;2022-08-01T04:51:54;19.80;99.90
52275;DHT22;38228;50.940;4.024;2022-08-01T04:54:41;19.90;99.90
52275;DHT22;38228;50.940;4.024;2022-08-01T04:57:06;19.90;99.90
52275;DHT22;38228;50.940;4.024;2022-08-01T04:59:35;19.90;99.90
52275;DHT22;38228;50.940;4.024;2022-08-01T05:02:13;19.80;99.90
52275;DHT22;38228;50.940;4.024;2022-08-01T05:04:40;19.60;99.90
52275;DHT22;38228;50.940;4.024;2022-08-01T05:07:07;19.70;99.90
52275;DHT22;38228;50.940;4.024;2022-08-01T05:09:33;19.70;99.90
52275;DHT22;38228;50.940;4.024;2022-08-01T05:12:00;20.00;99.90
52275;DHT22;38228;50.940;4.024;2022-08-01T05:14:27;20.20;99.90
52275;DHT22;38228;50.940;4.024;2022-08-01T05:16:54;20.10;99.90
52275;DHT22;38228;50.940;4.024;2022-08-01T05:19:20;20.10;99.90
52275;DHT22;38228;50.940;4.024;2022-08-01T05:21:46;20.30;99.90
52275;DHT22;38228;50.940;4.024;2022-08-01T05:24:12;20.20;99.90
52275;DHT22;38228;50.940;4.024;2022-08-01T05:26:38;20.10;99.90
52275;DHT22;38228;50.940;4.024;2022-08-01T05:29:05;20.20;99.90
52275;DHT22;38228;50.940;4.024;2022-08-01T05:31:31;20.30;99.90
52275;DHT22;38228;50.940;4.024;2022-08-01T05:34:00;20.30;99.90
52275;DHT22;38228;50.940;4.024;2022-08-01T05:36:26;20.50;99.90
52275;DHT22;38228;50.940;4.024;2022-08-01T05:38:52;20.50;99.90
52275;DHT22;38228;50.940;4.024;2022-08-01T05:41:18;20.10;99.90
52275;DHT22;38228;50.940;4.024;2022-08-01T05:43:43;20.00;99.90
52275;DHT22;38228;50.940;4.024;2022-08-01T05:46:09;20.00;99.90
52275;DHT22;38228;50.940;4.024;2022-08-01T05:48:35;19.80;99.90
52275;DHT22;38228;50.940;4.024;2022-08-01T05:51:01;20.10;99.90
52275;DHT22;38228;50.940;4.024;2022-08-01T05:53:27;20.30;99.90
52275;DHT22;38228;50.940;4.024;2022-08-01T05:55:52;20.30;99.90
52275;DHT22;38228;50.940;4.024;2022-08-01T05:58:18;20.50;99.90
52275;DHT22;38228;50.940;4.024;2022-08-01T06:00:44;20.60;99.90
52275;DHT22;38228;50.940;4.024;2022-08-01T06:03:09;20.80;99.90
52275;DHT22;38228;50.940;4.024;2022-08-01T06:05:36;20.80;99.90
52275;DHT22;38228;50.940;4.024;2022-08-01T06:08:03;21.00;99.90
52275;DHT22;38228;50.940;4.024;2022-08-01T06:10:29;21.10;99.90
52275;DHT22;38228;50.940;4.024;2022-08-01T06:12:54;20.90;99.90
52275;DHT22;38228;50.940;4.024;2022-08-01T06:15:20;20.80;99.90
52275;DHT22;38228;50.940;4.024;2022-08-01T06:17:46;20.60;99.90
52275;DHT22;38228;50.940;4.024;2022-08-01T06:20:11;20.50;99.90
52275;DHT22;38228;50.940;4.024;2022-08-01T06:22:37;20.60;99.90
52275;DHT22;38228;50.940;4.024;2022-08-01T06:25:04;20.80;99.90
52275;DHT22;38228;50.940;4.024;2022-08-01T06:27:30;21.00;99.90
52275;DHT22;38228;50.940;4.024;2022-08-01T06:29:55;21.00;99.90
52275;DHT22;38228;50.940;4.024;2022-08-01T06:32:22;20.90;99.90
52275;DHT22;38228;50.940;4.024;2022-08-01T06:34:48;20.90;99.90
52275;DHT22;38228;50.940;4.024;2022-08-01T06:37:14;21.00;99.90
52275;DHT22;38228;50.940;4.024;2022-08-01T06:39:41;21.00;99.90
52275;DHT22;38228;50.940;4.024;2022-08-01T06:42:06;21.20;99.90
52275;DHT22;38228;50.940;4.024;2022-08-01T06:44:32;21.20;99.90
52275;DHT22;38228;50.940;4.024;2022-08-01T06:46:58;21.40;99.90
52275;DHT22;38228;50.940;4.024;2022-08-01T06:49:24;21.40;99.90
52275;DHT22;38228;50.940;4.024;2022-08-01T06:51:50;21.50;99.90
52275;DHT22;38228;50.940;4.024;2022-08-01T06:54:16;21.50;99.90
52275;DHT22;38228;50.940;4.024;2022-08-01T06:56:42;21.40;99.90
52275;DHT22;38228;50.940;4.024;2022-08-01T06:59:08;21.30;99.90
52275;DHT22;38228;50.940;4.024;2022-08-01T07:01:34;21.70;99.90
52275;DHT22;38228;50.940;4.024;2022-08-01T07:04:00;21.50;99.90
52275;DHT22;38228;50.940;4.024;2022-08-01T07:06:25;21.30;99.90
52275;DHT22;38228;50.940;4.024;2022-08-01T07:08:52;21.20;99.90
52275;DHT22;38228;50.940;4.024;2022-08-01T07:11:19;21.40;99.90
52275;DHT22;38228;50.940;4.024;2022-08-01T07:13:45;21.60;99.90
52275;DHT22;38228;50.940;4.024;2022-08-01T07:16:14;21.50;99.90
52275;DHT22;38228;50.940;4.024;2022-08-01T07:18:40;21.40;99.90
52275;DHT22;38228;50.940;4.024;2022-08-01T07:21:06;21.50;99.90
52275;DHT22;38228;50.940;4.024;2022-08-01T07:23:32;21.40;99.90
52275;DHT22;38228;50.940;4.024;2022-08-01T07:25:58;21.50;99.90
52275;DHT22;38228;50.940;4.024;2022-08-01T07:28:24;21.30;99.90
52275;DHT22;38228;50.940;4.024;2022-08-01T07:30:50;21.30;99.90
52275;DHT22;38228;50.940;4.024;2022-08-01T07:33:16;21.30;99.90
52275;DHT22;38228;50.940;4.024;2022-08-01T07:35:41;20.90;99.90
52275;DHT22;38228;50.940;4.024;2022-08-01T07:38:07;20.90;99.90
52275;DHT22;38228;50.940;4.024;2022-08-01T07:40:33;21.10;99.90
52275;DHT22;38228;50.940;4.024;2022-08-01T07:42:59;21.30;99.90
52275;DHT22;38228;50.940;4.024;2022-08-01T07:45:24;21.60;99.90
52275;DHT22;38228;50.940;4.024;2022-08-01T07:47:52;21.30;99.90
52275;DHT22;38228;50.940;4.024;2022-08-01T07:50:17;21.70;99.90
52275;DHT22;38228;50.940;4.024;2022-08-01T07:52:43;21.80;99.90
52275;DHT22;38228;50.940;4.024;2022-08-01T07:55:10;21.80;99.90
52275;DHT22;38228;50.940;4.024;2022-08-01T07:57:36;21.80;99.90
52275;DHT22;38228;50.940;4.024;2022-08-01T08:00:05;22.10;99.90
52275;DHT22;38228;50.940;4.024;2022-08-01T08:02:34;22.50;99.90
52275;DHT22;38228;50.940;4.024;2022-08-01T08:05:00;22.70;99.90
52275;DHT22;38228;50.940;4.024;2022-08-01T08:07:26;22.80;99.90
52275;DHT22;38228;50.940;4.024;2022-08-01T08:09:51;23.00;99.90
52275;DHT22;38228;50.940;4.024;2022-08-01T08:12:18;23.00;99.90
52275;DHT22;38228;50.940;4.024;2022-08-01T08:14:43;23.20;99.90
52275;DHT22;38228;50.940;4.024;2022-08-01T08:17:09;23.00;99.90
52275;DHT22;38228;50.940;4.024;2022-08-01T08:19:35;22.80;99.90
52275;DHT22;38228;50.940;4.024;2022-08-01T08:22:03;22.60;99.90
52275;DHT22;38228;50.940;4.024;2022-08-01T08:24:28;22.70;99.90
52275;DHT22;38228;50.940;4.024;2022-08-01T08:26:56;22.70;99.90
52275;DHT22;38228;50.940;4.024;2022-08-01T08:29:22;22.60;99.90
52275;DHT22;38228;50.940;4.024;2022-08-01T08:31:49;22.50;99.90
52275;DHT22;38228;50.940;4.024;2022-08-01T08:34:16;22.60;99.90
52275;DHT22;38228;50.940;4.024;2022-08-01T08:36:42;22.60;99.90
52275;DHT22;38228;50.940;4.024;2022-08-01T08:39:07;22.40;99.90
52275;DHT22;38228;50.940;4.024;2022-08-01T08:41:34;22.50;99.90
52275;DHT22;38228;50.940;4.024;2022-08-01T08:44:07;22.70;99.90
52275;DHT22;38228;50.940;4.024;2022-08-01T08:46:34;23.00;99.90
52275;DHT22;38228;50.940;4.024;2022-08-01T08:49:05;23.00;99.90
52275;DHT22;38228;50.940;4.024;2022-08-01T08:51:33;22.70;99.90
52275;DHT22;38228;50.940;4.024;2022-08-01T08:54:00;22.70;99.90
52275;DHT22;38228;50.940;4.024;2022-08-01T08:56:28;22.90;99.90
52275;DHT22;38228;50.940;4.024;2022-08-01T08:58:58;22.90;99.90
52275;DHT22;38228;50.940;4.024;2022-08-01T09:01:25;23.30;99.90
52275;DHT22;38228;50.940;4.024;2022-08-01T09:03:51;23.80;99.90
52275;DHT22;38228;50.940;4.024;2022-08-01T09:06:17;24.30;99.90
52275;DHT22;38228;50.940;4.024;2022-08-01T09:08:43;24.40;99.90
52275;DHT22;38228;50.940;4.024;2022-08-01T09:11:09;24.40;99.90
52275;DHT22;38228;50.940;4.024;2022-08-01T09:13:34;23.90;99.90
52275;DHT22;38228;50.940;4.024;2022-08-01T09:16:00;23.50;99.90
52275;DHT22;38228;50.940;4.024;2022-08-01T09:23:33;24.10;99.90
52275;DHT22;38228;50.940;4.024;2022-08-01T09:25:59;24.30;99.90
52275;DHT22;38228;50.940;4.024;2022-08-01T09:28:29;24.40;99.90
52275;DHT22;38228;50.940;4.024;2022-08-01T09:30:58;24.30;99.90
52275;DHT22;38228;50.940;4.024;2022-08-01T09:33:53;24.30;99.90
52275;DHT22;38228;50.940;4.024;2022-08-01T09:36:24;24.40;99.90
52275;DHT22;38228;50.940;4.024;2022-08-01T09:38:51;24.80;99.90
52275;DHT22;38228;50.940;4.024;2022-08-01T09:41:28;25.10;99.90
52275;DHT22;38228;50.940;4.024;2022-08-01T09:43:55;25.20;99.90
52275;DHT22;38228;50.940;4.024;2022-08-01T09:46:21;24.90;99.90
52275;DHT22;38228;50.940;4.024;2022-08-01T09:49:00;24.70;99.90
52275;DHT22;38228;50.940;4.024;2022-08-01T09:51:38;24.60;99.90
52275;DHT22;38228;50.940;4.024;2022-08-01T09:54:06;24.60;99.90
52275;DHT22;38228;50.940;4.024;2022-08-01T09:56:40;24.70;99.90
52275;DHT22;38228;50.940;4.024;2022-08-01T09:59:11;24.30;99.90
52275;DHT22;38228;50.940;4.024;2022-08-01T10:01:45;24.50;99.90
52275;DHT22;38228;50.940;4.024;2022-08-01T10:04:16;25.00;99.90
52275;DHT22;38228;50.940;4.024;2022-08-01T10:06:44;25.50;99.90
52275;DHT22;38228;50.940;4.024;2022-08-01T10:09:12;25.70;99.90
52275;DHT22;38228;50.940;4.024;2022-08-01T10:11:39;25.70;99.90
52275;DHT22;38228;50.940;4.024;2022-08-01T10:14:07;25.90;99.90
52275;DHT22;38228;50.940;4.024;2022-08-01T10:16:35;25.90;99.90
52275;DHT22;38228;50.940;4.024;2022-08-01T10:19:04;25.80;99.90
52275;DHT22;38228;50.940;4.024;2022-08-01T10:21:33;25.90;99.90
52275;DHT22;38228;50.940;4.024;2022-08-01T10:24:01;26.10;99.90
52275;DHT22;38228;50.940;4.024;2022-08-01T10:26:29;26.10;99.90
52275;DHT22;38228;50.940;4.024;2022-08-01T10:28:57;26.00;99.90
52275;DHT22;38228;50.940;4.024;2022-08-01T10:31:23;25.80;99.90
52275;DHT22;38228;50.940;4.024;2022-08-01T10:33:50;26.10;99.90
52275;DHT22;38228;50.940;4.024;2022-08-01T10:36:20;26.20;99.90
52275;DHT22;38228;50.940;4.024;2022-08-01T10:38:47;26.20;99.90
52275;DHT22;38228;50.940;4.024;2022-08-01T10:41:13;26.40;99.90
52275;DHT22;38228;50.940;4.024;2022-08-01T10:43:42;26.30;99.90
52275;DHT22;38228;50.940;4.024;2022-08-01T10:46:09;26.20;99.90
52275;DHT22;38228;50.940;4.024;2022-08-01T10:48:56;25.80;99.90
52275;DHT22;38228;50.940;4.024;2022-08-01T10:51:25;25.90;99.90
52275;DHT22;38228;50.940;4.024;2022-08-01T10:53:53;25.40;99.90
52275;DHT22;38228;50.940;4.024;2022-08-01T10:56:20;25.60;99.90
52275;DHT22;38228;50.940;4.024;2022-08-01T10:58:47;26.10;99.90
52275;DHT22;38228;50.940;4.024;2022-08-01T11:06:49;26.40;99.90
52275;DHT22;38228;50.940;4.024;2022-08-01T11:09:26;26.70;99.90
52275;DHT22;38228;50.940;4.024;2022-08-01T11:12:02;27.00;99.90
52275;DHT22;38228;50.940;4.024;2022-08-01T11:14:31;27.30;99.90
52275;DHT22;38228;50.940;4.024;2022-08-01T11:20:33;27.20;99.90
52275;DHT22;38228;50.940;4.024;2022-08-01T11:33:11;26.40;99.90
52275;DHT22;38228;50.940;4.024;2022-08-01T11:35:39;26.80;99.90
52275;DHT22;38228;50.940;4.024;2022-08-01T11:38:25;26.90;99.90
52275;DHT22;38228;50.940;4.024;2022-08-01T11:44:04;27.20;99.90
52275;DHT22;38228;50.940;4.024;2022-08-01T11:46:56;27.20;98.70
52275;DHT22;38228;50.940;4.024;2022-08-01T11:54:36;27.30;98.70
52275;DHT22;38228;50.940;4.024;2022-08-01T11:57:08;27.10;99.40
52275;DHT22;38228;50.940;4.024;2022-08-01T11:59:45;26.90;99.60
52275;DHT22;38228;50.940;4.024;2022-08-01T12:02:20;26.40;99.70
52275;DHT22;38228;50.940;4.024;2022-08-01T12:05:12;25.90;99.90
52275;DHT22;38228;50.940;4.024;2022-08-01T12:07:41;26.20;99.80
52275;DHT22;38228;50.940;4.024;2022-08-01T12:10:13;26.50;99.80
52275;DHT22;38228;50.940;4.024;2022-08-01T12:12:44;26.80;99.10
52275;DHT22;38228;50.940;4.024;2022-08-01T12:15:11;27.00;99.10
52275;DHT22;38228;50.940;4.024;2022-08-01T12:17:39;27.10;98.30
52275;DHT22;38228;50.940;4.024;2022-08-01T12:20:10;27.20;98.80
52275;DHT22;38228;50.940;4.024;2022-08-01T12:22:37;27.40;98.70
52275;DHT22;38228;50.940;4.024;2022-08-01T12:27:36;27.70;98.30
52275;DHT22;38228;50.940;4.024;2022-08-01T12:30:08;27.90;98.00
52275;DHT22;38228;50.940;4.024;2022-08-01T12:32:36;28.10;97.50
52275;DHT22;38228;50.940;4.024;2022-08-01T12:35:16;27.90;97.60
52275;DHT22;38228;50.940;4.024;2022-08-01T12:37:45;28.00;96.30
52275;DHT22;38228;50.940;4.024;2022-08-01T12:40:24;27.70;96.00
52275;DHT22;38228;50.940;4.024;2022-08-01T12:42:53;27.50;96.50
52275;DHT22;38228;50.940;4.024;2022-08-01T12:45:21;27.40;95.20
52275;DHT22;38228;50.940;4.024;2022-08-01T12:47:48;27.30;94.20
52275;DHT22;38228;50.940;4.024;2022-08-01T12:50:19;27.00;94.10
52275;DHT22;38228;50.940;4.024;2022-08-01T12:52:46;27.10;95.20
52275;DHT22;38228;50.940;4.024;2022-08-01T12:55:17;27.50;93.40
52275;DHT22;38228;50.940;4.024;2022-08-01T12:57:45;27.30;93.20
52275;DHT22;38228;50.940;4.024;2022-08-01T13:00:16;27.50;94.50
52275;DHT22;38228;50.940;4.024;2022-08-01T13:02:46;27.80;94.10
52275;DHT22;38228;50.940;4.024;2022-08-01T13:05:13;28.20;94.00
52275;DHT22;38228;50.940;4.024;2022-08-01T13:07:49;28.50;93.10
52275;DHT22;38228;50.940;4.024;2022-08-01T13:10:25;28.20;92.60
52275;DHT22;38228;50.940;4.024;2022-08-01T13:12:53;27.40;93.00
52275;DHT22;38228;50.940;4.024;2022-08-01T13:15:31;26.40;94.60
52275;DHT22;38228;50.940;4.024;2022-08-01T13:17:59;26.00;95.60
52275;DHT22;38228;50.940;4.024;2022-08-01T13:20:32;26.20;95.50
52275;DHT22;38228;50.940;4.024;2022-08-01T13:23:18;26.50;94.10
52275;DHT22;38228;50.940;4.024;2022-08-01T13:25:49;26.70;93.60
52275;DHT22;38228;50.940;4.024;2022-08-01T13:28:23;27.10;92.60
52275;DHT22;38228;50.940;4.024;2022-08-01T13:31:05;27.50;92.00
52275;DHT22;38228;50.940;4.024;2022-08-01T13:33:42;28.10;92.00
52275;DHT22;38228;50.940;4.024;2022-08-01T13:36:09;28.50;91.00
52275;DHT22;38228;50.940;4.024;2022-08-01T13:38:34;28.80;91.50
52275;DHT22;38228;50.940;4.024;2022-08-01T13:41:19;28.70;91.30
52275;DHT22;38228;50.940;4.024;2022-08-01T13:43:45;28.10;92.20
52275;DHT22;38228;50.940;4.024;2022-08-01T13:46:11;28.50;91.70
52275;DHT22;38228;50.940;4.024;2022-08-01T13:48:37;28.60;91.80
52275;DHT22;38228;50.940;4.024;2022-08-01T13:51:02;28.90;92.00
52275;DHT22;38228;50.940;4.024;2022-08-01T13:53:28;29.60;90.90
52275;DHT22;38228;50.940;4.024;2022-08-01T13:55:54;29.90;89.80
52275;DHT22;38228;50.940;4.024;2022-08-01T13:58:20;29.60;89.30
52275;DHT22;38228;50.940;4.024;2022-08-01T14:00:46;29.20;90.20
52275;DHT22;38228;50.940;4.024;2022-08-01T14:03:12;29.20;90.00
52275;DHT22;38228;50.940;4.024;2022-08-01T14:05:38;29.10;90.20
52275;DHT22;38228;50.940;4.024;2022-08-01T14:08:05;28.70;89.80
52275;DHT22;38228;50.940;4.024;2022-08-01T14:10:31;28.10;91.40
52275;DHT22;38228;50.940;4.024;2022-08-01T14:12:58;27.80;91.90
52275;DHT22;38228;50.940;4.024;2022-08-01T14:15:24;27.60;91.70
52275;DHT22;38228;50.940;4.024;2022-08-01T14:17:50;27.40;91.80
52275;DHT22;38228;50.940;4.024;2022-08-01T14:20:16;27.40;91.90
52275;DHT22;38228;50.940;4.024;2022-08-01T14:22:45;27.60;92.10
52275;DHT22;38228;50.940;4.024;2022-08-01T14:25:11;27.60;91.90
52275;DHT22;38228;50.940;4.024;2022-08-01T14:27:37;27.60;92.30
52275;DHT22;38228;50.940;4.024;2022-08-01T14:30:05;27.60;91.90
52275;DHT22;38228;50.940;4.024;2022-08-01T14:32:32;27.90;91.30
52275;DHT22;38228;50.940;4.024;2022-08-01T14:35:02;28.70;90.80
52275;DHT22;38228;50.940;4.024;2022-08-01T14:37:28;29.10;88.80
52275;DHT22;38228;50.940;4.024;2022-08-01T14:39:55;29.30;88.50
52275;DHT22;38228;50.940;4.024;2022-08-01T14:42:21;29.80;87.70
52275;DHT22;38228;50.940;4.024;2022-08-01T14:44:46;30.00;85.50
52275;DHT22;38228;50.940;4.024;2022-08-01T14:47:12;30.50;84.70
52275;DHT22;38228;50.940;4.024;2022-08-01T14:49:38;30.70;83.40
52275;DHT22;38228;50.940;4.024;2022-08-01T14:52:04;31.30;81.50
52275;DHT22;38228;50.940;4.024;2022-08-01T14:54:29;31.00;80.50
52275;DHT22;38228;50.940;4.024;2022-08-01T14:56:55;30.50;81.10
52275;DHT22;38228;50.940;4.024;2022-08-01T14:59:21;31.10;80.10
52275;DHT22;38228;50.940;4.024;2022-08-01T15:01:47;31.10;79.80
52275;DHT22;38228;50.940;4.024;2022-08-01T15:04:12;30.80;79.10
52275;DHT22;38228;50.940;4.024;2022-08-01T15:06:38;30.30;80.50
52275;DHT22;38228;50.940;4.024;2022-08-01T15:09:04;29.90;79.70
52275;DHT22;38228;50.940;4.024;2022-08-01T15:11:29;29.40;80.90
52275;DHT22;38228;50.940;4.024;2022-08-01T15:13:55;29.10;81.00
52275;DHT22;38228;50.940;4.024;2022-08-01T15:16:40;28.90;81.50
52275;DHT22;38228;50.940;4.024;2022-08-01T15:19:05;29.50;80.50
52275;DHT22;38228;50.940;4.024;2022-08-01T15:21:31;30.20;79.60
52275;DHT22;38228;50.940;4.024;2022-08-01T15:23:57;30.50;77.30
52275;DHT22;38228;50.940;4.024;2022-08-01T15:26:22;30.90;76.70
52275;DHT22;38228;50.940;4.024;2022-08-01T15:28:48;31.20;75.00
52275;DHT22;38228;50.940;4.024;2022-08-01T15:31:14;31.70;74.20
52275;DHT22;38228;50.940;4.024;2022-08-01T15:33:40;32.00;72.00
52275;DHT22;38228;50.940;4.024;2022-08-01T15:36:05;32.30;71.10
52275;DHT22;38228;50.940;4.024;2022-08-01T15:38:31;32.40;71.70
52275;DHT22;38228;50.940;4.024;2022-08-01T15:40:57;33.30;69.40
52275;DHT22;38228;50.940;4.024;2022-08-01T15:43:23;33.50;67.80
52275;DHT22;38228;50.940;4.024;2022-08-01T15:45:48;33.20;67.40
52275;DHT22;38228;50.940;4.024;2022-08-01T15:48:15;33.10;67.60
52275;DHT22;38228;50.940;4.024;2022-08-01T15:50:41;33.00;67.40
52275;DHT22;38228;50.940;4.024;2022-08-01T15:53:07;33.10;67.70
52275;DHT22;38228;50.940;4.024;2022-08-01T15:55:39;33.10;67.30
52275;DHT22;38228;50.940;4.024;2022-08-01T15:58:05;33.10;66.80
52275;DHT22;38228;50.940;4.024;2022-08-01T16:00:31;33.40;66.50
52275;DHT22;38228;50.940;4.024;2022-08-01T16:02:57;33.60;65.50
52275;DHT22;38228;50.940;4.024;2022-08-01T16:05:23;34.20;65.20
52275;DHT22;38228;50.940;4.024;2022-08-01T16:07:49;35.20;63.20
52275;DHT22;38228;50.940;4.024;2022-08-01T16:10:14;35.80;61.10
52275;DHT22;38228;50.940;4.024;2022-08-01T16:12:40;35.90;60.00
52275;DHT22;38228;50.940;4.024;2022-08-01T16:15:06;35.70;59.60
52275;DHT22;38228;50.940;4.024;2022-08-01T16:17:32;35.70;59.30
52275;DHT22;38228;50.940;4.024;2022-08-01T16:19:58;35.50;59.10
52275;DHT22;38228;50.940;4.024;2022-08-01T16:22:24;35.40;58.90